createdAt,value
2016-06-24T00:00:35.896Z,27.36
2016-06-24T00:01:37.188Z,27.27
2016-06-24T00:02:36.591Z,27.27
2016-06-24T00:03:37.240Z,27.25
2016-06-24T00:04:36.640Z,27.25
2016-06-24T00:05:37.305Z,27.22
2016-06-24T00:06:36.719Z,27.18
2016-06-24T00:07:36.734Z,27.26
2016-06-24T00:08:36.150Z,27.21
2016-06-24T00:09:36.811Z,27.18
2016-06-24T00:10:36.844Z,27.12
2016-06-24T00:11:36.867Z,27.14
2016-06-24T00:12:36.287Z,27.12
2016-06-24T00:13:36.936Z,27.05
2016-06-24T00:14:36.961Z,26.97
2016-06-24T00:15:36.996Z,27
2016-06-24T00:16:37.771Z,26.96
2016-06-24T00:17:37.153Z,26.97
2016-06-24T00:18:36.460Z,27.07
2016-06-24T00:19:37.130Z,26.95
2016-06-24T00:20:37.168Z,26.99
2016-06-24T00:21:37.185Z,26.95
2016-06-24T00:22:37.860Z,26.9
2016-06-24T00:23:37.873Z,26.92
2016-06-24T00:24:37.895Z,26.92
2016-06-24T00:25:36.694Z,26.85
2016-06-24T00:26:37.341Z,26.85
2016-06-24T00:27:36.778Z,26.8
2016-06-24T00:28:36.776Z,26.88
2016-06-24T00:29:37.522Z,26.8
2016-06-24T00:30:36.902Z,26.8
2016-06-24T00:31:37.550Z,26.73
2016-06-24T00:32:36.961Z,26.7
2016-06-24T00:33:37.616Z,26.63
2016-06-24T00:34:37.151Z,26.65
2016-06-24T00:35:38.307Z,26.65
2016-06-24T00:36:38.441Z,26.7
2016-06-24T00:37:37.839Z,26.66
2016-06-24T00:38:37.223Z,26.62
2016-06-24T00:39:37.856Z,26.59
2016-06-24T00:40:37.858Z,26.63
2016-06-24T00:41:37.238Z,26.52
2016-06-24T00:42:37.866Z,26.59
2016-06-24T00:43:38.570Z,26.52
2016-06-24T00:44:38.609Z,26.48
2016-06-24T00:45:37.973Z,26.45
2016-06-24T00:46:38.620Z,26.44
2016-06-24T00:47:37.394Z,26.38
2016-06-24T00:48:38.638Z,26.41
2016-06-24T00:49:38.045Z,26.4
2016-06-24T00:50:37.464Z,26.4
2016-06-24T00:51:38.119Z,26.34
2016-06-24T00:52:38.153Z,26.28
2016-06-24T00:53:37.561Z,26.33
2016-06-24T00:54:38.215Z,26.34
2016-06-24T00:55:38.867Z,26.31
2016-06-24T00:56:38.275Z,26.29
2016-06-24T00:57:38.313Z,26.23
2016-06-24T00:58:38.978Z,26.09
2016-06-24T00:59:38.985Z,26.1
2016-06-24T01:00:38.418Z,26.19
2016-06-24T01:01:39.073Z,26.26
2016-06-24T01:02:38.464Z,26.18
2016-06-24T01:03:37.893Z,26.19
2016-06-24T01:04:37.916Z,26.06
2016-06-24T01:05:38.550Z,26.1
2016-06-24T01:06:39.203Z,26.09
2016-06-24T01:07:38.618Z,26.06
2016-06-24T01:08:39.265Z,26.09
2016-06-24T01:09:38.677Z,25.98
2016-06-24T01:10:39.327Z,25.96
2016-06-24T01:11:38.140Z,25.98
2016-06-24T01:12:38.161Z,26
2016-06-24T01:13:38.793Z,25.95
2016-06-24T01:14:38.827Z,25.91
2016-06-24T01:15:38.240Z,25.98
2016-06-24T01:16:38.875Z,25.87
2016-06-24T01:17:39.547Z,25.88
2016-06-24T01:18:38.958Z,25.83
2016-06-24T01:19:38.986Z,25.83
2016-06-24T01:20:39.043Z,25.81
2016-06-24T01:21:39.054Z,25.75
2016-06-24T01:22:39.698Z,25.81
2016-06-24T01:23:39.741Z,25.75
2016-06-24T01:24:39.142Z,25.75
2016-06-24T01:25:39.796Z,25.72
2016-06-24T01:26:39.838Z,25.66
2016-06-24T01:27:39.228Z,25.68
2016-06-24T01:28:39.259Z,25.73
2016-06-24T01:29:39.290Z,25.69
2016-06-24T01:30:39.332Z,25.68
2016-06-24T01:31:38.735Z,25.69
2016-06-24T01:32:39.379Z,25.66
2016-06-24T01:33:38.794Z,25.66
2016-06-24T01:34:39.450Z,25.58
2016-06-24T01:35:39.469Z,25.65
2016-06-24T01:36:39.500Z,25.54
2016-06-24T01:37:38.910Z,25.55
2016-06-24T01:38:40.210Z,25.65
2016-06-24T01:39:40.231Z,25.44
2016-06-24T01:40:39.003Z,25.55
2016-06-24T01:41:39.038Z,25.48
2016-06-24T01:42:40.315Z,25.46
2016-06-24T01:43:40.359Z,25.44
2016-06-24T01:44:39.749Z,25.41
2016-06-24T01:45:39.158Z,25.33
2016-06-24T01:46:39.834Z,25.33
2016-06-24T01:47:40.459Z,25.29
2016-06-24T01:48:39.859Z,25.4
2016-06-24T01:49:40.517Z,25.31
2016-06-24T01:50:40.545Z,25.31
2016-06-24T01:51:40.590Z,25.33
2016-06-24T01:52:40.607Z,25.26
2016-06-24T01:53:40.030Z,25.28
2016-06-24T01:54:40.668Z,25.31
2016-06-24T01:55:39.467Z,25.29
2016-06-24T01:56:40.113Z,25.18
2016-06-24T01:57:40.770Z,25.16
2016-06-24T01:58:40.174Z,25.17
2016-06-24T01:59:40.830Z,25.18
2016-06-24T02:00:40.250Z,25.17
2016-06-24T02:01:40.883Z,25.11
2016-06-24T02:02:40.303Z,25.14
2016-06-24T02:03:40.939Z,25.1
2016-06-24T02:04:39.747Z,25.08
2016-06-24T02:05:40.393Z,25.08
2016-06-24T02:06:39.815Z,25.08
2016-06-24T02:07:41.070Z,25.11
2016-06-24T02:08:40.489Z,25.08
2016-06-24T02:09:41.117Z,24.99
2016-06-24T02:10:40.545Z,25.04
2016-06-24T02:11:41.206Z,24.95
2016-06-24T02:12:39.979Z,24.99
2016-06-24T02:13:40.642Z,24.92
2016-06-24T02:14:40.036Z,24.95
2016-06-24T02:15:41.302Z,24.92
2016-06-24T02:16:40.727Z,24.93
2016-06-24T02:17:40.763Z,24.85
2016-06-24T02:18:40.149Z,24.96
2016-06-24T02:19:40.820Z,24.84
2016-06-24T02:20:41.451Z,24.88
2016-06-24T02:21:41.478Z,24.84
2016-06-24T02:22:40.885Z,24.88
2016-06-24T02:23:40.300Z,24.84
2016-06-24T02:24:41.567Z,24.76
2016-06-24T02:25:40.989Z,24.7
2016-06-24T02:26:41.009Z,24.81
2016-06-24T02:27:41.662Z,24.77
2016-06-24T02:28:41.702Z,24.77
2016-06-24T02:29:41.089Z,24.73
2016-06-24T02:30:40.533Z,24.7
2016-06-24T02:31:41.776Z,24.7
2016-06-24T02:32:41.195Z,24.76
2016-06-24T02:33:41.850Z,24.61
2016-06-24T02:34:41.264Z,24.58
2016-06-24T02:35:41.913Z,24.61
2016-06-24T02:36:41.927Z,24.6
2016-06-24T02:37:41.955Z,24.6
2016-06-24T02:38:41.378Z,24.68
2016-06-24T02:39:40.782Z,24.55
2016-06-24T02:40:42.049Z,24.63
2016-06-24T02:41:41.464Z,24.65
2016-06-24T02:42:40.886Z,24.68
2016-06-24T02:43:42.145Z,24.54
2016-06-24T02:44:41.545Z,24.57
2016-06-24T02:45:42.202Z,24.54
2016-06-24T02:46:41.593Z,24.55
2016-06-24T02:47:41.027Z,24.55
2016-06-24T02:48:41.669Z,24.53
2016-06-24T02:49:41.708Z,24.54
2016-06-24T02:50:42.443Z,24.43
2016-06-24T02:51:41.755Z,24.47
2016-06-24T02:52:41.785Z,24.43
2016-06-24T02:53:41.820Z,24.48
2016-06-24T02:54:41.923Z,24.39
2016-06-24T02:55:41.870Z,24.51
2016-06-24T02:56:41.308Z,24.45
2016-06-24T02:57:41.319Z,24.38
2016-06-24T02:58:41.957Z,24.39
2016-06-24T02:59:41.380Z,24.42
2016-06-24T03:00:42.698Z,24.39
2016-06-24T03:01:42.711Z,24.38
2016-06-24T03:02:42.758Z,24.35
2016-06-24T03:03:42.112Z,24.26
2016-06-24T03:04:42.161Z,24.29
2016-06-24T03:05:42.782Z,24.24
2016-06-24T03:06:41.621Z,24.23
2016-06-24T03:07:42.842Z,24.2
2016-06-24T03:08:42.248Z,24.23
2016-06-24T03:09:41.670Z,24.24
2016-06-24T03:10:42.428Z,24.23
2016-06-24T03:11:42.969Z,24.21
2016-06-24T03:12:43.013Z,24.21
2016-06-24T03:13:43.031Z,24.16
2016-06-24T03:14:43.114Z,24.17
2016-06-24T03:15:41.846Z,24.17
2016-06-24T03:16:43.119Z,24.18
2016-06-24T03:17:42.623Z,24.2
2016-06-24T03:18:43.170Z,24.13
2016-06-24T03:19:43.205Z,24.21
2016-06-24T03:20:42.642Z,24.05
2016-06-24T03:21:42.643Z,24.06
2016-06-24T03:22:43.296Z,24.1
2016-06-24T03:23:43.325Z,24.08
2016-06-24T03:24:42.804Z,24.06
2016-06-24T03:25:43.376Z,24.02
2016-06-24T03:26:42.824Z,24.01
2016-06-24T03:27:42.827Z,23.99
2016-06-24T03:28:43.462Z,24.05
2016-06-24T03:29:42.883Z,23.98
2016-06-24T03:30:42.907Z,23.92
2016-06-24T03:31:42.418Z,24.03
2016-06-24T03:32:42.459Z,23.91
2016-06-24T03:33:42.467Z,23.91
2016-06-24T03:34:43.641Z,23.99
2016-06-24T03:35:42.481Z,23.91
2016-06-24T03:36:42.489Z,23.92
2016-06-24T03:37:43.127Z,23.91
2016-06-24T03:38:43.765Z,23.86
2016-06-24T03:39:42.634Z,23.92
2016-06-24T03:40:43.838Z,23.86
2016-06-24T03:41:43.221Z,23.91
2016-06-24T03:42:43.271Z,23.83
2016-06-24T03:43:43.286Z,23.83
2016-06-24T03:44:43.938Z,23.81
2016-06-24T03:45:43.960Z,23.83
2016-06-24T03:46:42.768Z,23.8
2016-06-24T03:47:44.022Z,23.88
2016-06-24T03:48:44.049Z,23.92
2016-06-24T03:49:44.078Z,23.8
2016-06-24T03:50:44.102Z,23.78
2016-06-24T03:51:43.521Z,23.78
2016-06-24T03:52:44.180Z,23.73
2016-06-24T03:53:43.579Z,23.76
2016-06-24T03:54:44.244Z,23.8
2016-06-24T03:55:43.662Z,23.81
2016-06-24T03:56:43.047Z,23.76
2016-06-24T03:57:44.305Z,23.78
2016-06-24T03:58:44.343Z,23.76
2016-06-24T03:59:43.131Z,23.77
2016-06-24T04:00:43.797Z,23.78
2016-06-24T04:01:43.815Z,23.74
2016-06-24T04:02:44.699Z,23.74
2016-06-24T04:03:44.578Z,23.74
2016-06-24T04:04:43.899Z,23.71
2016-06-24T04:05:43.919Z,23.76
2016-06-24T04:06:43.951Z,23.73
2016-06-24T04:07:43.999Z,23.84
2016-06-24T04:08:44.664Z,23.66
2016-06-24T04:09:43.429Z,23.73
2016-06-24T04:10:44.091Z,23.69
2016-06-24T04:11:44.100Z,23.73
2016-06-24T04:12:44.133Z,23.84
2016-06-24T04:13:44.146Z,23.66
2016-06-24T04:14:44.198Z,23.81
2016-06-24T04:15:44.831Z,23.66
2016-06-24T04:16:44.255Z,23.68
2016-06-24T04:17:44.277Z,23.73
2016-06-24T04:18:44.303Z,23.69
2016-06-24T04:19:44.321Z,23.71
2016-06-24T04:20:45.008Z,23.68
2016-06-24T04:21:45.009Z,23.69
2016-06-24T04:22:44.404Z,23.69
2016-06-24T04:23:45.062Z,23.73
2016-06-24T04:24:44.497Z,23.74
2016-06-24T04:25:44.500Z,23.73
2016-06-24T04:26:44.557Z,23.66
2016-06-24T04:27:45.164Z,23.74
2016-06-24T04:28:43.982Z,23.77
2016-06-24T04:29:44.614Z,23.71
2016-06-24T04:30:44.654Z,23.66
2016-06-24T04:31:45.398Z,23.68
2016-06-24T04:32:45.429Z,23.62
2016-06-24T04:33:45.437Z,23.66
2016-06-24T04:34:45.443Z,23.66
2016-06-24T04:35:44.814Z,23.69
2016-06-24T04:36:44.818Z,23.66
2016-06-24T04:37:44.222Z,23.71
2016-06-24T04:38:44.869Z,23.65
2016-06-24T04:39:45.545Z,23.62
2016-06-24T04:40:45.547Z,23.69
2016-06-24T04:41:44.950Z,23.68
2016-06-24T04:42:44.364Z,23.65
2016-06-24T04:43:44.395Z,23.63
2016-06-24T04:44:45.715Z,23.69
2016-06-24T04:45:44.443Z,23.63
2016-06-24T04:46:45.119Z,23.69
2016-06-24T04:47:45.126Z,23.65
2016-06-24T04:48:44.542Z,23.74
2016-06-24T04:49:45.807Z,23.69
2016-06-24T04:50:44.620Z,23.61
2016-06-24T04:51:44.630Z,23.74
2016-06-24T04:52:45.902Z,23.73
2016-06-24T04:53:45.369Z,23.69
2016-06-24T04:54:45.949Z,23.73
2016-06-24T04:55:45.380Z,23.74
2016-06-24T04:56:45.388Z,23.74
2016-06-24T04:57:45.530Z,23.66
2016-06-24T04:58:44.837Z,23.73
2016-06-24T04:59:45.578Z,23.63
2016-06-24T05:00:45.574Z,23.68
2016-06-24T05:01:46.150Z,23.68
2016-06-24T05:02:45.632Z,23.69
2016-06-24T05:03:45.630Z,23.74
2016-06-24T05:04:45.643Z,23.65
2016-06-24T05:05:45.026Z,23.73
2016-06-24T05:06:45.685Z,23.77
2016-06-24T05:07:46.387Z,23.69
2016-06-24T05:08:46.402Z,23.68
2016-06-24T05:09:46.406Z,23.69
2016-06-24T05:10:45.790Z,23.71
2016-06-24T05:11:46.476Z,23.77
2016-06-24T05:12:45.859Z,23.76
2016-06-24T05:13:45.872Z,23.71
2016-06-24T05:14:45.285Z,23.69
2016-06-24T05:15:46.552Z,23.77
2016-06-24T05:16:45.340Z,23.84
2016-06-24T05:17:45.386Z,23.8
2016-06-24T05:18:46.009Z,23.71
2016-06-24T05:19:45.413Z,23.71
2016-06-24T05:20:45.454Z,23.73
2016-06-24T05:21:46.112Z,23.81
2016-06-24T05:22:46.774Z,23.76
2016-06-24T05:23:46.779Z,23.77
2016-06-24T05:24:46.878Z,23.77
2016-06-24T05:25:46.210Z,23.81
2016-06-24T05:26:46.234Z,23.8
2016-06-24T05:27:46.891Z,23.8
2016-06-24T05:28:46.927Z,23.8
2016-06-24T05:29:46.956Z,23.78
2016-06-24T05:30:46.368Z,23.81
2016-06-24T05:31:47.002Z,23.78
2016-06-24T05:32:45.898Z,23.83
2016-06-24T05:33:47.143Z,23.8
2016-06-24T05:34:45.859Z,23.92
2016-06-24T05:35:46.494Z,23.84
2016-06-24T05:36:47.170Z,23.88
2016-06-24T05:37:47.170Z,23.86
2016-06-24T05:38:46.574Z,23.83
2016-06-24T05:39:47.233Z,23.87
2016-06-24T05:40:46.019Z,23.91
2016-06-24T05:41:47.293Z,23.95
2016-06-24T05:42:47.347Z,23.95
2016-06-24T05:43:46.739Z,23.96
2016-06-24T05:44:47.424Z,23.95
2016-06-24T05:45:47.416Z,23.99
2016-06-24T05:46:46.825Z,24.01
2016-06-24T05:47:46.840Z,23.99
2016-06-24T05:48:47.508Z,24.03
2016-06-24T05:49:47.538Z,24.16
2016-06-24T05:50:47.567Z,24.08
2016-06-24T05:51:46.965Z,24.05
2016-06-24T05:52:46.382Z,24.06
2016-06-24T05:53:46.407Z,24.08
2016-06-24T05:54:47.683Z,24.03
2016-06-24T05:55:47.074Z,24.2
2016-06-24T05:56:46.539Z,24.11
2016-06-24T05:57:46.595Z,24.11
2016-06-24T05:58:47.843Z,24.16
2016-06-24T05:59:47.391Z,24.13
2016-06-24T06:00:47.309Z,24.14
2016-06-24T06:01:47.311Z,24.2
2016-06-24T06:02:47.986Z,24.18
2016-06-24T06:03:47.421Z,24.26
2016-06-24T06:04:47.545Z,24.23
2016-06-24T06:05:47.462Z,24.24
2016-06-24T06:06:47.407Z,24.24
2016-06-24T06:07:47.419Z,24.24
2016-06-24T06:08:47.465Z,24.28
2016-06-24T06:09:47.480Z,24.26
2016-06-24T06:10:47.516Z,24.35
2016-06-24T06:11:46.942Z,24.35
2016-06-24T06:12:48.188Z,24.38
2016-06-24T06:13:48.240Z,24.36
2016-06-24T06:14:47.016Z,24.43
2016-06-24T06:15:47.652Z,24.4
2016-06-24T06:16:47.149Z,24.48
2016-06-24T06:17:47.111Z,24.45
2016-06-24T06:18:47.828Z,24.4
2016-06-24T06:19:47.266Z,24.51
2016-06-24T06:20:47.810Z,24.47
2016-06-24T06:21:47.825Z,24.58
2016-06-24T06:22:48.025Z,24.53
2016-06-24T06:23:48.504Z,24.54
2016-06-24T06:24:47.905Z,24.54
2016-06-24T06:25:48.566Z,24.53
2016-06-24T06:26:47.985Z,24.68
2016-06-24T06:27:48.621Z,24.61
2016-06-24T06:28:47.415Z,24.61
2016-06-24T06:29:48.668Z,24.66
2016-06-24T06:30:48.078Z,24.6
2016-06-24T06:31:48.725Z,24.65
2016-06-24T06:32:48.128Z,24.61
2016-06-24T06:33:48.171Z,24.7
2016-06-24T06:34:47.577Z,24.69
2016-06-24T06:35:48.841Z,24.76
2016-06-24T06:36:48.240Z,24.8
2016-06-24T06:37:48.801Z,24.7
2016-06-24T06:38:48.940Z,24.78
2016-06-24T06:39:48.354Z,24.8
2016-06-24T06:40:48.993Z,24.84
2016-06-24T06:41:47.779Z,24.93
2016-06-24T06:42:47.799Z,24.86
2016-06-24T06:43:47.850Z,24.85
2016-06-24T06:44:49.207Z,24.95
2016-06-24T06:45:49.214Z,25.01
2016-06-24T06:46:49.217Z,24.98
2016-06-24T06:47:47.953Z,25.01
2016-06-24T06:48:49.234Z,25.01
2016-06-24T06:49:48.009Z,25.11
2016-06-24T06:50:48.652Z,25.06
2016-06-24T06:51:49.412Z,25.18
2016-06-24T06:52:49.420Z,25.13
2016-06-24T06:53:49.427Z,25.14
2016-06-24T06:54:49.434Z,25.17
2016-06-24T06:55:48.805Z,25.18
2016-06-24T06:56:49.554Z,25.28
2016-06-24T06:57:48.870Z,25.35
2016-06-24T06:58:49.515Z,25.35
2016-06-24T06:59:48.926Z,25.31
2016-06-24T07:00:48.962Z,25.32
2016-06-24T07:01:48.971Z,25.36
2016-06-24T07:02:49.010Z,25.5
2016-06-24T07:03:49.157Z,25.53
2016-06-24T07:04:49.185Z,25.58
2016-06-24T07:05:48.478Z,25.55
2016-06-24T07:06:49.732Z,25.59
2016-06-24T07:07:49.265Z,25.6
2016-06-24T07:08:48.574Z,25.69
2016-06-24T07:09:49.850Z,25.63
2016-06-24T07:10:49.908Z,25.77
2016-06-24T07:11:49.347Z,25.77
2016-06-24T07:12:49.940Z,25.83
2016-06-24T07:13:49.369Z,25.87
2016-06-24T07:14:49.363Z,25.95
2016-06-24T07:15:49.482Z,25.98
2016-06-24T07:16:49.495Z,26.02
2016-06-24T07:17:50.071Z,26.18
2016-06-24T07:18:48.882Z,26.1
2016-06-24T07:19:50.136Z,26.21
2016-06-24T07:20:50.153Z,26.22
2016-06-24T07:21:48.949Z,26.28
2016-06-24T07:22:50.217Z,26.31
2016-06-24T07:23:50.299Z,26.47
2016-06-24T07:24:50.292Z,26.51
2016-06-24T07:25:50.311Z,26.59
2016-06-24T07:26:49.711Z,26.65
2016-06-24T07:27:49.786Z,26.65
2016-06-24T07:28:49.782Z,26.8
2016-06-24T07:29:50.098Z,26.8
2016-06-24T07:30:49.835Z,26.84
2016-06-24T07:31:49.870Z,26.92
2016-06-24T07:32:49.363Z,26.99
2016-06-24T07:33:50.528Z,27.03
2016-06-24T07:34:49.952Z,27.17
2016-06-24T07:35:49.452Z,27.26
2016-06-24T07:36:50.642Z,27.27
2016-06-24T07:37:50.053Z,27.42
2016-06-24T07:38:50.067Z,27.47
2016-06-24T07:39:50.714Z,27.51
2016-06-24T07:40:50.146Z,27.59
2016-06-24T07:41:50.792Z,27.7
2016-06-24T07:42:50.207Z,27.68
2016-06-24T07:43:49.621Z,27.78
2016-06-24T07:44:50.875Z,27.89
2016-06-24T07:45:50.301Z,28
2016-06-24T07:46:50.319Z,28
2016-06-24T07:47:50.359Z,28
2016-06-24T07:48:50.991Z,28.17
2016-06-24T07:49:50.410Z,28.2
2016-06-24T07:50:50.451Z,28.3
2016-06-24T07:51:50.464Z,28.38
2016-06-24T07:52:50.506Z,28.42
2016-06-24T07:53:50.536Z,28.51
2016-06-24T07:54:49.943Z,28.62
2016-06-24T07:55:50.577Z,28.63
2016-06-24T07:56:50.622Z,28.82
2016-06-24T07:57:50.654Z,28.79
2016-06-24T07:58:51.314Z,28.89
2016-06-24T07:59:50.103Z,28.86
2016-06-24T08:00:51.450Z,28.96
2016-06-24T08:01:50.154Z,29.07
2016-06-24T08:02:51.510Z,29.07
2016-06-24T08:03:50.852Z,29.19
2016-06-24T08:04:50.252Z,29.27
2016-06-24T08:05:50.339Z,29.29
2016-06-24T08:06:50.293Z,29.38
2016-06-24T08:07:50.948Z,29.44
2016-06-24T08:08:51.610Z,29.5
2016-06-24T08:09:51.003Z,29.56
2016-06-24T08:10:51.680Z,29.56
2016-06-24T08:11:51.082Z,29.69
2016-06-24T08:12:50.494Z,29.73
2016-06-24T08:13:51.189Z,29.86
2016-06-24T08:14:51.970Z,29.91
2016-06-24T08:15:51.227Z,29.93
2016-06-24T08:16:51.988Z,30.05
2016-06-24T08:17:51.995Z,30.09
2016-06-24T08:18:51.995Z,30.27
2016-06-24T08:19:51.384Z,30.25
2016-06-24T08:20:50.732Z,30.3
2016-06-24T08:21:50.773Z,30.43
2016-06-24T08:22:52.102Z,30.5
2016-06-24T08:23:52.095Z,30.55
2016-06-24T08:24:52.201Z,30.61
2016-06-24T08:25:51.602Z,30.69
2016-06-24T08:26:52.217Z,30.73
2016-06-24T08:27:52.239Z,30.83
2016-06-24T08:28:51.621Z,30.83
2016-06-24T08:29:51.031Z,30.97
2016-06-24T08:30:51.688Z,31.07
2016-06-24T08:31:52.331Z,31.1
2016-06-24T08:32:51.168Z,31.15
2016-06-24T08:33:52.388Z,31.27
2016-06-24T08:34:51.869Z,31.33
2016-06-24T08:35:52.447Z,31.43
2016-06-24T08:36:52.481Z,31.46
2016-06-24T08:37:52.513Z,31.49
2016-06-24T08:38:52.101Z,31.52
2016-06-24T08:39:52.107Z,31.62
2016-06-24T08:40:51.998Z,31.74
2016-06-24T08:41:52.636Z,31.74
2016-06-24T08:42:52.127Z,31.89
2016-06-24T08:43:52.073Z,31.93
2016-06-24T08:44:52.115Z,32.01
2016-06-24T08:45:52.767Z,32.04
2016-06-24T08:46:52.800Z,32.11
2016-06-24T08:47:52.218Z,32.15
2016-06-24T08:48:52.893Z,32.27
2016-06-24T08:49:52.289Z,32.33
2016-06-24T08:50:52.919Z,32.33
2016-06-24T08:51:52.964Z,32.48
2016-06-24T08:52:52.399Z,32.51
2016-06-24T08:53:53.012Z,32.49
2016-06-24T08:54:52.446Z,32.67
2016-06-24T08:55:52.466Z,32.65
2016-06-24T08:56:52.490Z,32.75
2016-06-24T08:57:53.158Z,32.85
2016-06-24T08:58:51.955Z,32.95
2016-06-24T08:59:53.797Z,32.93
2016-06-24T09:00:52.011Z,33.02
2016-06-24T09:01:52.056Z,33.15
2016-06-24T09:02:53.318Z,33.15
2016-06-24T09:03:52.158Z,33.32
2016-06-24T09:04:53.386Z,33.31
2016-06-24T09:05:52.801Z,33.39
2016-06-24T09:06:52.834Z,33.43
2016-06-24T09:07:53.493Z,33.47
2016-06-24T09:08:53.507Z,33.73
2016-06-24T09:09:52.925Z,33.69
2016-06-24T09:10:53.580Z,33.8
2016-06-24T09:11:53.608Z,33.81
2016-06-24T09:12:53.030Z,33.95
2016-06-24T09:13:52.447Z,34.02
2016-06-24T09:14:53.710Z,34.06
2016-06-24T09:15:53.130Z,34.18
2016-06-24T09:16:53.173Z,34.24
2016-06-24T09:17:52.572Z,34.4
2016-06-24T09:18:53.950Z,34.42
2016-06-24T09:19:53.987Z,34.54
2016-06-24T09:20:53.991Z,34.57
2016-06-24T09:21:53.386Z,34.64
2016-06-24T09:22:52.744Z,34.7
2016-06-24T09:23:54.028Z,34.88
2016-06-24T09:24:54.153Z,34.8
2016-06-24T09:25:53.570Z,34.93
2016-06-24T09:26:52.890Z,34.93
2016-06-24T09:27:53.615Z,35.02
2016-06-24T09:28:53.632Z,35.11
2016-06-24T09:29:54.223Z,35.15
2016-06-24T09:30:54.265Z,35.23
2016-06-24T09:31:53.679Z,35.29
2016-06-24T09:32:54.354Z,35.34
2016-06-24T09:33:53.735Z,35.48
2016-06-24T09:34:53.293Z,35.53
2016-06-24T09:35:53.896Z,35.58
2016-06-24T09:36:53.923Z,35.63
2016-06-24T09:37:53.937Z,35.82
2016-06-24T09:38:53.959Z,35.8
2016-06-24T09:39:54.067Z,35.93
2016-06-24T09:40:54.058Z,35.92
2016-06-24T09:41:54.069Z,36.02
2016-06-24T09:42:54.230Z,36.02
2016-06-24T09:43:53.606Z,36.07
2016-06-24T09:44:54.246Z,36.17
2016-06-24T09:45:54.244Z,36.24
2016-06-24T09:46:54.864Z,36.31
2016-06-24T09:47:54.258Z,36.42
2016-06-24T09:48:54.331Z,36.39
2016-06-24T09:49:54.990Z,36.52
2016-06-24T09:50:54.989Z,36.57
2016-06-24T09:51:53.752Z,36.72
2016-06-24T09:52:55.023Z,36.76
2016-06-24T09:53:55.050Z,36.83
2016-06-24T09:54:55.084Z,36.86
2016-06-24T09:55:54.502Z,36.86
2016-06-24T09:56:54.550Z,36.96
2016-06-24T09:57:53.954Z,37.08
2016-06-24T09:58:54.609Z,37.14
2016-06-24T09:59:55.267Z,37.13
2016-06-24T10:00:55.295Z,37.15
2016-06-24T10:01:55.332Z,37.21
2016-06-24T10:02:54.743Z,37.32
2016-06-24T10:03:55.421Z,37.3
2016-06-24T10:04:54.851Z,37.45
2016-06-24T10:05:55.474Z,37.48
2016-06-24T10:06:55.512Z,37.58
2016-06-24T10:07:55.574Z,37.45
2016-06-24T10:08:55.598Z,37.56
2016-06-24T10:09:55.011Z,37.63
2016-06-24T10:10:55.673Z,37.65
2016-06-24T10:11:55.067Z,37.71
2016-06-24T10:12:55.736Z,37.78
2016-06-24T10:13:55.156Z,37.96
2016-06-24T10:14:54.587Z,37.86
2016-06-24T10:15:55.220Z,38.02
2016-06-24T10:16:55.247Z,38.08
2016-06-24T10:17:55.279Z,38.17
2016-06-24T10:18:55.331Z,38.19
2016-06-24T10:19:55.361Z,38.24
2016-06-24T10:20:55.395Z,38.38
2016-06-24T10:21:56.044Z,38.4
2016-06-24T10:22:54.867Z,38.46
2016-06-24T10:23:56.135Z,38.52
2016-06-24T10:24:55.552Z,38.52
2016-06-24T10:25:55.571Z,38.49
2016-06-24T10:26:56.252Z,38.64
2016-06-24T10:27:56.677Z,38.76
2016-06-24T10:28:56.322Z,38.74
2016-06-24T10:29:56.345Z,38.83
2016-06-24T10:30:55.753Z,38.95
2016-06-24T10:31:56.465Z,38.96
2016-06-24T10:32:55.218Z,39.02
2016-06-24T10:33:55.267Z,39.06
2016-06-24T10:34:55.905Z,39.21
2016-06-24T10:35:56.579Z,39.11
2016-06-24T10:36:55.969Z,39.29
2016-06-24T10:37:55.418Z,39.31
2016-06-24T10:38:56.677Z,39.43
2016-06-24T10:39:56.086Z,39.44
2016-06-24T10:40:56.145Z,39.56
2016-06-24T10:41:55.550Z,39.52
2016-06-24T10:42:56.831Z,39.65
2016-06-24T10:43:56.853Z,39.62
2016-06-24T10:44:56.911Z,39.8
2016-06-24T10:45:56.313Z,39.81
2016-06-24T10:46:56.969Z,39.78
2016-06-24T10:47:56.375Z,39.92
2016-06-24T10:48:55.889Z,40
2016-06-24T10:49:55.851Z,40.04
2016-06-24T10:50:56.491Z,40.16
2016-06-24T10:51:56.533Z,40.26
2016-06-24T10:52:56.575Z,40.28
2016-06-24T10:53:57.238Z,40.35
2016-06-24T10:54:56.714Z,40.4
2016-06-24T10:55:57.335Z,40.4
2016-06-24T10:56:56.735Z,40.44
2016-06-24T10:57:56.767Z,40.5
2016-06-24T10:58:56.187Z,40.58
2016-06-24T10:59:57.452Z,40.59
2016-06-24T11:00:57.490Z,40.63
2016-06-24T11:01:56.913Z,40.68
2016-06-24T11:02:56.944Z,40.73
2016-06-24T11:03:56.992Z,40.78
2016-06-24T11:04:57.038Z,40.8
2016-06-24T11:05:57.118Z,40.81
2016-06-24T11:06:57.739Z,40.91
2016-06-24T11:07:57.143Z,41.12
2016-06-24T11:08:57.175Z,41.04
2016-06-24T11:09:57.219Z,41.14
2016-06-24T11:10:57.271Z,41.22
2016-06-24T11:11:57.299Z,41.34
2016-06-24T11:12:57.955Z,41.33
2016-06-24T11:13:56.749Z,41.34
2016-06-24T11:14:57.453Z,41.31
2016-06-24T11:15:57.449Z,41.41
2016-06-24T11:16:57.489Z,41.45
2016-06-24T11:17:56.922Z,41.53
2016-06-24T11:18:57.563Z,41.7
2016-06-24T11:19:56.983Z,41.74
2016-06-24T11:20:58.258Z,41.68
2016-06-24T11:21:58.288Z,41.72
2016-06-24T11:22:57.718Z,41.77
2016-06-24T11:23:58.365Z,41.91
2016-06-24T11:24:57.790Z,41.98
2016-06-24T11:25:57.210Z,42.01
2016-06-24T11:26:58.492Z,42.02
2016-06-24T11:27:58.525Z,42.13
2016-06-24T11:28:57.949Z,42.2
2016-06-24T11:29:57.979Z,42.24
2016-06-24T11:30:58.648Z,42.24
2016-06-24T11:31:58.063Z,42.35
2016-06-24T11:32:58.112Z,42.39
2016-06-24T11:33:58.156Z,42.57
2016-06-24T11:34:58.181Z,42.62
2016-06-24T11:35:58.222Z,42.6
2016-06-24T11:36:57.640Z,42.58
2016-06-24T11:37:57.683Z,42.6
2016-06-24T11:38:59.073Z,42.7
2016-06-24T11:39:59.002Z,42.81
2016-06-24T11:40:58.414Z,42.78
2016-06-24T11:41:59.250Z,42.86
2016-06-24T11:42:57.877Z,42.89
2016-06-24T11:43:59.035Z,42.94
2016-06-24T11:44:58.986Z,42.92
2016-06-24T11:45:59.313Z,43.06
2016-06-24T11:46:59.048Z,43.03
2016-06-24T11:47:58.698Z,43.26
2016-06-24T11:48:58.844Z,43.24
2016-06-24T11:49:59.390Z,43.3
2016-06-24T11:50:59.435Z,43.3
2016-06-24T11:51:59.478Z,43.35
2016-06-24T11:52:58.265Z,43.38
2016-06-24T11:53:58.304Z,43.39
2016-06-24T11:54:59.088Z,43.39
2016-06-24T11:55:59.094Z,43.49
2016-06-24T11:56:59.666Z,43.5
2016-06-24T11:57:59.167Z,43.61
2016-06-24T11:58:59.786Z,43.58
2016-06-24T11:59:59.202Z,43.65
2016-06-24T12:00:59.825Z,43.69
2016-06-24T12:01:59.865Z,43.77
2016-06-24T12:02:58.675Z,43.67
2016-06-24T12:03:58.710Z,43.83
2016-06-24T12:04:59.986Z,43.92
2016-06-24T12:05:58.890Z,44.01
2016-06-24T12:07:00.068Z,44.08
2016-06-24T12:07:59.479Z,44.08
2016-06-24T12:09:00.154Z,44.14
2016-06-24T12:09:59.005Z,44.17
2016-06-24T12:10:59.618Z,44.22
2016-06-24T12:11:59.651Z,44.37
2016-06-24T12:13:00.302Z,44.3
2016-06-24T12:14:00.346Z,44.4
2016-06-24T12:15:00.392Z,44.33
2016-06-24T12:15:59.189Z,44.39
2016-06-24T12:16:59.852Z,44.52
2016-06-24T12:18:00.500Z,44.61
2016-06-24T12:18:59.306Z,44.56
2016-06-24T12:20:00.592Z,44.58
2016-06-24T12:21:00.630Z,44.75
2016-06-24T12:22:00.058Z,44.81
2016-06-24T12:23:00.080Z,44.87
2016-06-24T12:24:00.119Z,44.9
2016-06-24T12:24:59.548Z,45.02
2016-06-24T12:26:00.225Z,45.08
2016-06-24T12:27:00.251Z,45.09
2016-06-24T12:28:00.979Z,45.16
2016-06-24T12:29:00.338Z,45.2
2016-06-24T12:30:00.375Z,45.25
2016-06-24T12:31:01.154Z,45.37
2016-06-24T12:32:01.107Z,45.43
2016-06-24T12:33:01.171Z,45.47
2016-06-24T12:34:01.182Z,45.62
2016-06-24T12:35:00.570Z,45.65
2016-06-24T12:36:00.628Z,45.77
2016-06-24T12:37:00.670Z,45.8
2016-06-24T12:38:00.083Z,45.85
2016-06-24T12:39:00.765Z,45.97
2016-06-24T12:40:00.777Z,46.07
2016-06-24T12:41:00.909Z,46.17
2016-06-24T12:42:01.682Z,46.1
2016-06-24T12:43:01.729Z,46.26
2016-06-24T12:44:00.955Z,46.23
2016-06-24T12:45:00.363Z,46.36
2016-06-24T12:46:00.409Z,46.41
2016-06-24T12:47:01.173Z,46.48
2016-06-24T12:48:01.185Z,46.47
2016-06-24T12:49:01.215Z,46.55
2016-06-24T12:50:00.582Z,46.58
2016-06-24T12:51:01.935Z,46.58
2016-06-24T12:52:01.317Z,46.62
2016-06-24T12:53:01.941Z,46.66
2016-06-24T12:54:01.376Z,46.64
2016-06-24T12:55:01.490Z,46.66
2016-06-24T12:56:02.070Z,46.58